Time,TemperatureF,DewpointF,PressureIn,WindDirection,WindDirectionDegrees,WindSpeedMPH,WindSpeedGustMPH,Humidity,HourlyPrecipIn,Conditions,Clouds,dailyrainin,SolarRadiationWatts/m^2,SoftwareType,DateUTC
2013-04-17 00:02:00,24.0,22.0,-100.00,ENE,69,0.0,0.0,90,0.00,,,0.00,0.000000,,2013-04-17 05:02:00,
2013-04-17 00:22:00,24.0,22.0,-100.00,ENE,69,0.0,0.0,90,0.00,,,0.00,0.000000,,2013-04-17 05:22:00,
2013-04-17 00:32:00,24.0,22.0,-100.00,ENE,69,0.0,0.0,90,0.00,,,0.00,0.000000,,2013-04-17 05:32:00,
2013-04-17 00:43:00,24.0,22.0,-100.00,ENE,69,0.0,0.0,90,0.00,,,0.00,0.000000,,2013-04-17 05:43:00,
2013-04-17 00:52:00,24.0,22.0,-100.00,ENE,69,0.0,0.0,90,0.00,,,0.00,0.000000,,2013-04-17 05:52:00,
2013-04-17 01:02:00,24.0,21.0,-100.00,ESE,112,1.0,3.0,89,0.00,,,0.00,0.000000,,2013-04-17 06:02:00,
2013-04-17 01:32:00,24.0,21.0,-100.00,ESE,112,1.0,3.0,89,0.00,,,0.00,0.000000,,2013-04-17 06:32:00,
2013-04-17 01:42:00,24.0,21.0,-100.00,ESE,112,1.0,3.0,89,0.00,,,0.00,0.000000,,2013-04-17 06:42:00,
2013-04-17 01:52:00,24.0,21.0,-100.00,ESE,112,1.0,3.0,89,0.00,,,0.00,0.000000,,2013-04-17 06:52:00,
2013-04-17 02:02:00,26.0,22.0,-100.00,ESE,109,2.0,4.0,83,0.00,,,0.00,0.000000,,2013-04-17 07:02:00,
2013-04-17 02:32:00,26.0,22.0,-100.00,ESE,109,2.0,4.0,83,0.00,,,0.00,0.000000,,2013-04-17 07:32:00,
2013-04-17 02:42:00,26.0,22.0,-100.00,ESE,109,2.0,4.0,83,0.00,,,0.00,0.000000,,2013-04-17 07:42:00,
2013-04-17 02:52:00,26.0,22.0,-100.00,ESE,109,2.0,4.0,83,0.00,,,0.00,0.000000,,2013-04-17 07:52:00,
2013-04-17 03:02:00,25.0,22.0,-100.00,East,94,1.0,4.0,88,0.00,,,0.00,0.000000,,2013-04-17 08:02:00,
2013-04-17 03:22:00,25.0,22.0,-100.00,East,94,1.0,4.0,88,0.00,,,0.00,0.000000,,2013-04-17 08:22:00,
2013-04-17 03:33:00,25.0,22.0,-100.00,East,94,1.0,4.0,88,0.00,,,0.00,0.000000,,2013-04-17 08:33:00,
2013-04-17 03:42:00,25.0,22.0,-100.00,East,94,1.0,4.0,88,0.00,,,0.00,0.000000,,2013-04-17 08:42:00,
2013-04-17 03:52:00,25.0,22.0,-100.00,East,94,1.0,4.0,88,0.00,,,0.00,0.000000,,2013-04-17 08:52:00,
2013-04-17 04:02:00,24.0,22.0,-100.00,ENE,71,1.0,3.0,92,0.00,,,0.00,0.000000,,2013-04-17 09:02:00,
2013-04-17 04:33:00,24.0,22.0,-100.00,ENE,71,1.0,3.0,92,0.00,,,0.00,0.000000,,2013-04-17 09:33:00,
2013-04-17 04:42:00,24.0,22.0,-100.00,ENE,71,1.0,3.0,92,0.00,,,0.00,0.000000,,2013-04-17 09:42:00,
2013-04-17 04:52:00,24.0,22.0,-100.00,ENE,71,1.0,3.0,92,0.00,,,0.00,0.000000,,2013-04-17 09:52:00,
2013-04-17 05:02:00,27.0,23.0,-100.00,ESE,120,2.0,5.0,85,0.00,,,0.00,0.000000,,2013-04-17 10:02:00,
2013-04-17 05:33:00,27.0,23.0,-100.00,ESE,120,2.0,5.0,85,0.00,,,0.00,0.000000,,2013-04-17 10:33:00,
2013-04-17 05:43:00,27.0,23.0,-100.00,ESE,120,2.0,5.0,85,0.00,,,0.00,0.000000,,2013-04-17 10:43:00,
2013-04-17 05:53:00,27.0,23.0,-100.00,ESE,120,2.0,5.0,85,0.00,,,0.00,0.000000,,2013-04-17 10:53:00,
2013-04-17 06:02:00,27.0,23.0,-100.00,East,98,3.0,5.0,84,0.00,,,0.00,0.000000,,2013-04-17 11:02:00,
2013-04-17 06:22:00,27.0,23.0,-100.00,East,98,3.0,5.0,84,0.00,,,0.00,0.000000,,2013-04-17 11:22:00,
2013-04-17 06:32:00,27.0,23.0,-100.00,East,98,3.0,5.0,84,0.00,,,0.00,0.000000,,2013-04-17 11:32:00,
2013-04-17 06:42:00,27.0,23.0,-100.00,East,98,3.0,5.0,84,0.00,,,0.00,0.000000,,2013-04-17 11:42:00,
2013-04-17 06:52:00,27.0,23.0,-100.00,East,98,3.0,5.0,84,0.00,,,0.00,0.000000,,2013-04-17 11:52:00,
2013-04-17 07:02:00,28.0,23.0,-100.00,East,86,4.0,10.0,81,0.00,,,0.00,16.000000,,2013-04-17 12:02:00,
2013-04-17 07:32:00,28.0,23.0,-100.00,East,86,4.0,10.0,81,0.00,,,0.00,16.000000,,2013-04-17 12:32:00,
2013-04-17 07:42:00,28.0,23.0,-100.00,East,86,4.0,10.0,81,0.00,,,0.00,16.000000,,2013-04-17 12:42:00,
2013-04-17 07:52:00,28.0,23.0,-100.00,East,86,4.0,10.0,81,0.00,,,0.00,16.000000,,2013-04-17 12:52:00,
2013-04-17 08:02:00,31.0,23.0,-100.00,ESE,110,4.0,11.0,73,0.00,,,0.00,118.000000,,2013-04-17 13:02:00,
2013-04-17 08:22:00,31.0,23.0,-100.00,ESE,110,4.0,11.0,73,0.00,,,0.00,118.000000,,2013-04-17 13:22:00,
2013-04-17 08:32:00,31.0,23.0,-100.00,ESE,110,4.0,11.0,73,0.00,,,0.00,118.000000,,2013-04-17 13:32:00,
2013-04-17 08:42:00,31.0,23.0,-100.00,ESE,110,4.0,11.0,73,0.00,,,0.00,118.000000,,2013-04-17 13:42:00,
2013-04-17 08:52:00,31.0,23.0,-100.00,ESE,110,4.0,11.0,73,0.00,,,0.00,118.000000,,2013-04-17 13:52:00,
2013-04-17 09:02:00,32.0,24.0,-100.00,East,97,4.0,10.0,72,0.00,,,0.00,98.000000,,2013-04-17 14:02:00,
2013-04-17 09:32:00,32.0,24.0,-100.00,East,97,4.0,10.0,72,0.00,,,0.00,98.000000,,2013-04-17 14:32:00,
2013-04-17 09:43:00,32.0,24.0,-100.00,East,97,4.0,10.0,72,0.00,,,0.00,98.000000,,2013-04-17 14:43:00,
2013-04-17 09:52:00,32.0,24.0,-100.00,East,97,4.0,10.0,72,0.00,,,0.00,98.000000,,2013-04-17 14:52:00,
2013-04-17 10:02:00,38.0,26.0,-100.00,SE,139,3.0,10.0,62,0.00,,,0.00,286.000000,,2013-04-17 15:02:00,
2013-04-17 10:22:00,38.0,26.0,-100.00,SE,139,3.0,10.0,62,0.00,,,0.00,286.000000,,2013-04-17 15:22:00,
2013-04-17 10:33:00,38.0,26.0,-100.00,SE,139,3.0,10.0,62,0.00,,,0.00,286.000000,,2013-04-17 15:33:00,
2013-04-17 10:43:00,38.0,26.0,-100.00,SE,139,3.0,10.0,62,0.00,,,0.00,286.000000,,2013-04-17 15:43:00,
2013-04-17 10:53:00,38.0,26.0,-100.00,SE,139,3.0,10.0,62,0.00,,,0.00,286.000000,,2013-04-17 15:53:00,
2013-04-17 11:02:00,39.0,25.0,-100.00,East,80,3.0,9.0,57,0.00,,,0.00,383.000000,,2013-04-17 16:02:00,
2013-04-17 11:23:00,39.0,25.0,-100.00,East,80,3.0,9.0,57,0.00,,,0.00,383.000000,,2013-04-17 16:23:00,
2013-04-17 11:32:00,39.0,25.0,-100.00,East,80,3.0,9.0,57,0.00,,,0.00,383.000000,,2013-04-17 16:32:00,
2013-04-17 11:42:00,39.0,25.0,-100.00,East,80,3.0,9.0,57,0.00,,,0.00,383.000000,,2013-04-17 16:42:00,
2013-04-17 11:52:00,39.0,25.0,-100.00,East,80,3.0,9.0,57,0.00,,,0.00,383.000000,,2013-04-17 16:52:00,
2013-04-17 12:02:00,39.0,25.0,-100.00,NE,48,4.0,8.0,57,0.00,,,0.00,224.000000,,2013-04-17 17:02:00,
2013-04-17 12:33:00,39.0,25.0,-100.00,NE,48,4.0,8.0,57,0.00,,,0.00,224.000000,,2013-04-17 17:33:00,
2013-04-17 12:42:00,39.0,25.0,-100.00,NE,48,4.0,8.0,57,0.00,,,0.00,224.000000,,2013-04-17 17:42:00,
2013-04-17 12:52:00,39.0,25.0,-100.00,NE,48,4.0,8.0,57,0.00,,,0.00,224.000000,,2013-04-17 17:52:00,
2013-04-17 13:02:00,39.0,25.0,-100.00,NNW,346,4.0,9.0,56,0.00,,,0.00,285.000000,,2013-04-17 18:02:00,
2013-04-17 13:33:00,39.0,25.0,-100.00,NNW,346,4.0,9.0,56,0.00,,,0.00,285.000000,,2013-04-17 18:33:00,
2013-04-17 13:42:00,39.0,25.0,-100.00,NNW,346,4.0,9.0,56,0.00,,,0.00,285.000000,,2013-04-17 18:42:00,
2013-04-17 13:52:00,39.0,25.0,-100.00,NNW,346,4.0,9.0,56,0.00,,,0.00,285.000000,,2013-04-17 18:52:00,
2013-04-17 14:02:00,40.0,26.0,-100.00,NNE,23,4.0,8.0,56,0.00,,,0.00,211.000000,,2013-04-17 19:02:00,
2013-04-17 14:32:00,40.0,26.0,-100.00,NNE,23,4.0,8.0,56,0.00,,,0.00,211.000000,,2013-04-17 19:32:00,
2013-04-17 14:42:00,40.0,26.0,-100.00,NNE,23,4.0,8.0,56,0.00,,,0.00,211.000000,,2013-04-17 19:42:00,
2013-04-17 14:52:00,40.0,26.0,-100.00,NNE,23,4.0,8.0,56,0.00,,,0.00,211.000000,,2013-04-17 19:52:00,
2013-04-17 15:02:00,38.0,26.0,-100.00,NNE,25,5.0,11.0,62,0.00,,,0.00,233.000000,,2013-04-17 20:02:00,
2013-04-17 15:33:00,38.0,26.0,-100.00,NNE,25,5.0,11.0,62,0.00,,,0.00,233.000000,,2013-04-17 20:33:00,
2013-04-17 15:42:00,38.0,26.0,-100.00,NNE,25,5.0,11.0,62,0.00,,,0.00,233.000000,,2013-04-17 20:42:00,
2013-04-17 15:52:00,38.0,26.0,-100.00,NNE,25,5.0,11.0,62,0.00,,,0.00,233.000000,,2013-04-17 20:52:00,
2013-04-17 16:02:00,36.0,27.0,-100.00,NNE,21,5.0,12.0,70,0.00,,,0.00,144.000000,,2013-04-17 21:02:00,
2013-04-17 16:33:00,36.0,27.0,-100.00,NNE,21,5.0,12.0,70,0.00,,,0.00,144.000000,,2013-04-17 21:33:00,
2013-04-17 16:43:00,36.0,27.0,-100.00,NNE,21,5.0,12.0,70,0.00,,,0.00,144.000000,,2013-04-17 21:43:00,
2013-04-17 16:53:00,36.0,27.0,-100.00,NNE,21,5.0,12.0,70,0.00,,,0.00,144.000000,,2013-04-17 21:53:00,
2013-04-17 17:02:00,35.0,28.0,-100.00,NNE,15,5.0,15.0,74,0.00,,,0.00,124.000000,,2013-04-17 22:02:00,
2013-04-17 17:33:00,35.0,28.0,-100.00,NNE,15,5.0,15.0,74,0.00,,,0.00,124.000000,,2013-04-17 22:33:00,
2013-04-17 17:43:00,35.0,28.0,-100.00,NNE,15,5.0,15.0,74,0.00,,,0.00,124.000000,,2013-04-17 22:43:00,
2013-04-17 17:53:00,35.0,28.0,-100.00,NNE,15,5.0,15.0,74,0.00,,,0.00,124.000000,,2013-04-17 22:53:00,
2013-04-17 18:02:00,34.0,28.0,-100.00,NNE,32,4.0,12.0,78,0.00,,,0.00,76.000000,,2013-04-17 23:02:00,
2013-04-17 18:22:00,34.0,28.0,-100.00,NNE,32,4.0,12.0,78,0.00,,,0.00,76.000000,,2013-04-17 23:22:00,
2013-04-17 18:32:00,34.0,28.0,-100.00,NNE,32,4.0,12.0,78,0.00,,,0.00,76.000000,,2013-04-17 23:32:00,
2013-04-17 18:42:00,34.0,28.0,-100.00,NNE,32,4.0,12.0,78,0.00,,,0.00,76.000000,,2013-04-17 23:42:00,
2013-04-17 18:52:00,34.0,28.0,-100.00,NNE,32,4.0,12.0,78,0.00,,,0.00,76.000000,,2013-04-17 23:52:00,
2013-04-17 19:02:00,32.0,27.0,-100.00,NNE,15,5.0,11.0,83,0.00,,,0.00,27.000000,,2013-04-18 00:02:00,
2013-04-17 19:32:00,32.0,27.0,-100.00,NNE,15,5.0,11.0,83,0.00,,,0.00,27.000000,,2013-04-18 00:32:00,
2013-04-17 19:42:00,32.0,27.0,-100.00,NNE,15,5.0,11.0,83,0.00,,,0.00,27.000000,,2013-04-18 00:42:00,
2013-04-17 19:52:00,32.0,27.0,-100.00,NNE,15,5.0,11.0,83,0.00,,,0.00,27.000000,,2013-04-18 00:52:00,
2013-04-17 20:02:00,31.0,28.0,-100.00,NNE,28,4.0,10.0,88,0.00,,,0.00,3.000000,,2013-04-18 01:02:00,
2013-04-17 20:32:00,31.0,28.0,-100.00,NNE,28,4.0,10.0,88,0.00,,,0.00,3.000000,,2013-04-18 01:32:00,
2013-04-17 20:42:00,31.0,28.0,-100.00,NNE,28,4.0,10.0,88,0.00,,,0.00,3.000000,,2013-04-18 01:42:00,
2013-04-17 20:52:00,31.0,28.0,-100.00,NNE,28,4.0,10.0,88,0.00,,,0.00,3.000000,,2013-04-18 01:52:00,
2013-04-17 21:02:00,31.0,28.0,-100.00,NNE,13,4.0,10.0,90,0.00,,,0.00,0.000000,,2013-04-18 02:02:00,
2013-04-17 21:22:00,31.0,28.0,-100.00,NNE,13,4.0,10.0,90,0.00,,,0.00,0.000000,,2013-04-18 02:22:00,
2013-04-17 21:32:00,31.0,28.0,-100.00,NNE,13,4.0,10.0,90,0.00,,,0.00,0.000000,,2013-04-18 02:32:00,
2013-04-17 21:42:00,31.0,28.0,-100.00,NNE,13,4.0,10.0,90,0.00,,,0.00,0.000000,,2013-04-18 02:42:00,
2013-04-17 21:52:00,31.0,28.0,-100.00,NNE,13,4.0,10.0,90,0.00,,,0.00,0.000000,,2013-04-18 02:52:00,
2013-04-17 22:02:00,31.0,29.0,-100.00,North,9,4.0,13.0,94,0.00,,,0.00,0.000000,,2013-04-18 03:02:00,
2013-04-17 22:33:00,31.0,29.0,-100.00,North,9,4.0,13.0,94,0.00,,,0.00,0.000000,,2013-04-18 03:33:00,
2013-04-17 22:43:00,31.0,29.0,-100.00,North,9,4.0,13.0,94,0.00,,,0.00,0.000000,,2013-04-18 03:43:00,
2013-04-17 22:53:00,31.0,29.0,-100.00,North,9,4.0,13.0,94,0.00,,,0.00,0.000000,,2013-04-18 03:53:00,
2013-04-17 23:02:00,31.0,29.0,-100.00,NNE,17,3.0,11.0,94,0.00,,,0.00,0.000000,,2013-04-18 04:02:00,
2013-04-17 23:33:00,31.0,29.0,-100.00,NNE,17,3.0,11.0,94,0.00,,,0.00,0.000000,,2013-04-18 04:33:00,
2013-04-17 23:43:00,31.0,29.0,-100.00,NNE,17,3.0,11.0,94,0.00,,,0.00,0.000000,,2013-04-18 04:43:00,
2013-04-17 23:53:00,31.0,29.0,-100.00,NNE,17,3.0,11.0,94,0.00,,,0.00,0.000000,,2013-04-18 04:53:00,